sensor_id;sensor_type;location;lat;lon;timestamp;P1;durP1;ratioP1;P2;durP2;ratioP2
4565;SDS011;2295;51.050;14.608;2022-11-15T00:02:01;70.60;;;31.67;;
4565;SDS011;2295;51.050;14.608;2022-11-15T00:04:31;69.45;;;30.77;;
4565;SDS011;2295;51.050;14.608;2022-11-15T00:07:00;69.97;;;31.80;;
4565;SDS011;2295;51.050;14.608;2022-11-15T00:09:30;70.13;;;31.42;;
4565;SDS011;2295;51.050;14.608;2022-11-15T00:12:01;84.88;;;33.00;;
4565;SDS011;2295;51.050;14.608;2022-11-15T00:14:29;75.82;;;34.38;;
4565;SDS011;2295;51.050;14.608;2022-11-15T00:16:58;84.15;;;35.50;;
4565;SDS011;2295;51.050;14.608;2022-11-15T00:19:26;76.43;;;35.53;;
4565;SDS011;2295;51.050;14.608;2022-11-15T00:21:55;89.40;;;36.22;;
4565;SDS011;2295;51.050;14.608;2022-11-15T00:24:23;79.70;;;35.25;;
4565;SDS011;2295;51.050;14.608;2022-11-15T00:26:56;94.30;;;36.88;;
4565;SDS011;2295;51.050;14.608;2022-11-15T00:29:25;81.15;;;35.38;;
4565;SDS011;2295;51.050;14.608;2022-11-15T00:31:53;87.22;;;34.70;;
4565;SDS011;2295;51.050;14.608;2022-11-15T00:34:22;84.53;;;34.88;;
4565;SDS011;2295;51.050;14.608;2022-11-15T00:36:54;83.15;;;34.45;;
4565;SDS011;2295;51.050;14.608;2022-11-15T00:39:23;81.97;;;36.22;;
4565;SDS011;2295;51.050;14.608;2022-11-15T00:41:52;85.85;;;35.70;;
4565;SDS011;2295;51.050;14.608;2022-11-15T00:44:25;77.00;;;34.25;;
4565;SDS011;2295;51.050;14.608;2022-11-15T00:46:54;91.90;;;35.17;;
4565;SDS011;2295;51.050;14.608;2022-11-15T00:49:23;78.72;;;34.38;;
4565;SDS011;2295;51.050;14.608;2022-11-15T00:51:52;76.85;;;33.80;;
4565;SDS011;2295;51.050;14.608;2022-11-15T00:54:20;76.90;;;33.08;;
4565;SDS011;2295;51.050;14.608;2022-11-15T00:56:49;77.13;;;31.90;;
4565;SDS011;2295;51.050;14.608;2022-11-15T00:59:18;81.88;;;33.38;;
4565;SDS011;2295;51.050;14.608;2022-11-15T01:01:48;68.38;;;31.33;;
4565;SDS011;2295;51.050;14.608;2022-11-15T01:04:17;73.80;;;32.20;;
4565;SDS011;2295;51.050;14.608;2022-11-15T01:06:46;69.70;;;30.95;;
4565;SDS011;2295;51.050;14.608;2022-11-15T01:09:17;72.93;;;31.30;;
4565;SDS011;2295;51.050;14.608;2022-11-15T01:11:50;78.90;;;31.60;;
4565;SDS011;2295;51.050;14.608;2022-11-15T01:14:30;72.55;;;31.60;;
4565;SDS011;2295;51.050;14.608;2022-11-15T01:17:01;80.63;;;33.28;;
4565;SDS011;2295;51.050;14.608;2022-11-15T01:19:32;82.15;;;34.80;;
4565;SDS011;2295;51.050;14.608;2022-11-15T01:22:01;81.22;;;32.70;;
4565;SDS011;2295;51.050;14.608;2022-11-15T01:24:31;76.53;;;32.70;;
4565;SDS011;2295;51.050;14.608;2022-11-15T01:27:00;79.43;;;33.72;;
4565;SDS011;2295;51.050;14.608;2022-11-15T01:29:31;79.80;;;33.00;;
4565;SDS011;2295;51.050;14.608;2022-11-15T01:32:01;72.00;;;31.80;;
4565;SDS011;2295;51.050;14.608;2022-11-15T01:34:30;80.30;;;33.45;;
4565;SDS011;2295;51.050;14.608;2022-11-15T01:36:59;83.65;;;34.00;;
4565;SDS011;2295;51.050;14.608;2022-11-15T01:39:36;88.35;;;33.45;;
4565;SDS011;2295;51.050;14.608;2022-11-15T01:42:08;85.05;;;35.20;;
4565;SDS011;2295;51.050;14.608;2022-11-15T01:44:41;81.03;;;33.65;;
4565;SDS011;2295;51.050;14.608;2022-11-15T01:47:15;80.07;;;31.50;;
4565;SDS011;2295;51.050;14.608;2022-11-15T01:49:49;80.28;;;33.80;;
4565;SDS011;2295;51.050;14.608;2022-11-15T01:52:24;88.85;;;36.03;;
4565;SDS011;2295;51.050;14.608;2022-11-15T01:54:56;100.35;;;37.20;;
4565;SDS011;2295;51.050;14.608;2022-11-15T01:57:31;93.50;;;36.35;;
4565;SDS011;2295;51.050;14.608;2022-11-15T02:00:03;87.60;;;35.63;;
4565;SDS011;2295;51.050;14.608;2022-11-15T02:02:34;84.78;;;35.00;;
4565;SDS011;2295;51.050;14.608;2022-11-15T02:05:06;77.35;;;33.15;;
4565;SDS011;2295;51.050;14.608;2022-11-15T02:07:37;72.95;;;31.35;;
4565;SDS011;2295;51.050;14.608;2022-11-15T02:10:10;82.22;;;31.27;;
4565;SDS011;2295;51.050;14.608;2022-11-15T02:12:41;74.18;;;31.60;;
4565;SDS011;2295;51.050;14.608;2022-11-15T02:15:10;80.30;;;32.45;;
4565;SDS011;2295;51.050;14.608;2022-11-15T02:17:48;76.32;;;33.88;;
4565;SDS011;2295;51.050;14.608;2022-11-15T02:20:36;88.38;;;36.30;;
4565;SDS011;2295;51.050;14.608;2022-11-15T02:23:24;86.55;;;34.40;;
4565;SDS011;2295;51.050;14.608;2022-11-15T02:26:09;86.40;;;36.90;;
4565;SDS011;2295;51.050;14.608;2022-11-15T02:29:01;96.55;;;35.17;;
4565;SDS011;2295;51.050;14.608;2022-11-15T02:31:50;81.53;;;35.90;;
4565;SDS011;2295;51.050;14.608;2022-11-15T02:34:25;92.20;;;36.03;;
4565;SDS011;2295;51.050;14.608;2022-11-15T02:37:01;80.97;;;33.60;;
4565;SDS011;2295;51.050;14.608;2022-11-15T02:39:39;86.10;;;35.30;;
4565;SDS011;2295;51.050;14.608;2022-11-15T02:42:13;73.15;;;34.13;;
4565;SDS011;2295;51.050;14.608;2022-11-15T02:44:58;81.72;;;32.72;;
4565;SDS011;2295;51.050;14.608;2022-11-15T02:47:35;82.85;;;33.60;;
4565;SDS011;2295;51.050;14.608;2022-11-15T02:50:10;80.72;;;34.05;;
4565;SDS011;2295;51.050;14.608;2022-11-15T02:53:08;86.40;;;34.03;;
4565;SDS011;2295;51.050;14.608;2022-11-15T02:55:38;90.32;;;35.28;;
4565;SDS011;2295;51.050;14.608;2022-11-15T02:58:25;89.82;;;35.95;;
4565;SDS011;2295;51.050;14.608;2022-11-15T03:01:20;78.93;;;33.33;;
4565;SDS011;2295;51.050;14.608;2022-11-15T03:03:59;93.32;;;36.90;;
4565;SDS011;2295;51.050;14.608;2022-11-15T03:06:37;93.68;;;35.00;;
4565;SDS011;2295;51.050;14.608;2022-11-15T03:09:10;81.30;;;34.58;;
4565;SDS011;2295;51.050;14.608;2022-11-15T03:11:54;81.00;;;34.30;;
4565;SDS011;2295;51.050;14.608;2022-11-15T03:14:32;84.05;;;33.10;;
4565;SDS011;2295;51.050;14.608;2022-11-15T03:17:05;69.35;;;31.95;;
4565;SDS011;2295;51.050;14.608;2022-11-15T03:19:45;87.57;;;32.53;;
4565;SDS011;2295;51.050;14.608;2022-11-15T03:22:15;83.80;;;33.08;;
4565;SDS011;2295;51.050;14.608;2022-11-15T03:24:46;85.85;;;35.42;;
4565;SDS011;2295;51.050;14.608;2022-11-15T03:27:21;97.47;;;37.85;;
4565;SDS011;2295;51.050;14.608;2022-11-15T03:29:54;87.25;;;34.65;;
4565;SDS011;2295;51.050;14.608;2022-11-15T03:32:27;94.70;;;36.53;;
4565;SDS011;2295;51.050;14.608;2022-11-15T03:35:02;96.95;;;36.75;;
4565;SDS011;2295;51.050;14.608;2022-11-15T03:37:33;101.65;;;36.83;;
4565;SDS011;2295;51.050;14.608;2022-11-15T03:40:06;94.07;;;36.20;;
4565;SDS011;2295;51.050;14.608;2022-11-15T03:42:38;91.70;;;36.40;;
4565;SDS011;2295;51.050;14.608;2022-11-15T03:45:13;101.75;;;37.22;;
4565;SDS011;2295;51.050;14.608;2022-11-15T03:47:51;93.65;;;36.90;;
4565;SDS011;2295;51.050;14.608;2022-11-15T03:50:29;91.18;;;36.20;;
4565;SDS011;2295;51.050;14.608;2022-11-15T03:52:59;88.68;;;34.95;;
4565;SDS011;2295;51.050;14.608;2022-11-15T03:55:28;94.68;;;36.80;;
4565;SDS011;2295;51.050;14.608;2022-11-15T03:58:00;102.47;;;36.65;;
4565;SDS011;2295;51.050;14.608;2022-11-15T04:00:29;78.55;;;31.63;;
4565;SDS011;2295;51.050;14.608;2022-11-15T04:02:58;81.10;;;33.08;;
4565;SDS011;2295;51.050;14.608;2022-11-15T04:05:31;75.32;;;30.90;;
4565;SDS011;2295;51.050;14.608;2022-11-15T04:08:01;80.00;;;32.25;;
4565;SDS011;2295;51.050;14.608;2022-11-15T04:10:30;85.85;;;32.58;;
4565;SDS011;2295;51.050;14.608;2022-11-15T04:13:01;73.05;;;31.90;;
4565;SDS011;2295;51.050;14.608;2022-11-15T04:15:30;84.82;;;33.95;;
4565;SDS011;2295;51.050;14.608;2022-11-15T04:18:00;87.30;;;35.33;;
4565;SDS011;2295;51.050;14.608;2022-11-15T04:20:30;84.25;;;34.63;;
4565;SDS011;2295;51.050;14.608;2022-11-15T04:23:18;94.20;;;34.22;;
4565;SDS011;2295;51.050;14.608;2022-11-15T04:26:14;90.82;;;35.05;;
4565;SDS011;2295;51.050;14.608;2022-11-15T04:28:46;95.93;;;35.45;;
4565;SDS011;2295;51.050;14.608;2022-11-15T04:31:29;94.78;;;35.00;;
4565;SDS011;2295;51.050;14.608;2022-11-15T04:34:00;100.82;;;35.67;;
4565;SDS011;2295;51.050;14.608;2022-11-15T04:36:34;100.53;;;36.55;;
4565;SDS011;2295;51.050;14.608;2022-11-15T04:39:27;114.30;;;39.05;;
4565;SDS011;2295;51.050;14.608;2022-11-15T04:41:56;100.35;;;38.35;;
4565;SDS011;2295;51.050;14.608;2022-11-15T04:44:25;108.35;;;38.00;;
4565;SDS011;2295;51.050;14.608;2022-11-15T04:46:53;109.55;;;37.75;;
4565;SDS011;2295;51.050;14.608;2022-11-15T04:49:24;105.47;;;40.22;;
4565;SDS011;2295;51.050;14.608;2022-11-15T04:52:16;113.72;;;39.58;;
4565;SDS011;2295;51.050;14.608;2022-11-15T04:54:45;103.70;;;37.38;;
4565;SDS011;2295;51.050;14.608;2022-11-15T04:57:14;103.30;;;37.17;;
4565;SDS011;2295;51.050;14.608;2022-11-15T04:59:43;105.47;;;37.67;;
4565;SDS011;2295;51.050;14.608;2022-11-15T05:02:13;86.80;;;35.60;;
4565;SDS011;2295;51.050;14.608;2022-11-15T05:04:43;88.45;;;34.60;;
4565;SDS011;2295;51.050;14.608;2022-11-15T05:07:12;72.80;;;31.67;;
4565;SDS011;2295;51.050;14.608;2022-11-15T05:09:41;87.15;;;33.35;;
4565;SDS011;2295;51.050;14.608;2022-11-15T05:12:09;82.07;;;31.77;;
4565;SDS011;2295;51.050;14.608;2022-11-15T05:14:40;91.95;;;34.25;;
4565;SDS011;2295;51.050;14.608;2022-11-15T05:17:09;80.90;;;33.90;;
4565;SDS011;2295;51.050;14.608;2022-11-15T05:19:37;89.72;;;35.92;;
4565;SDS011;2295;51.050;14.608;2022-11-15T05:22:07;89.70;;;34.55;;
4565;SDS011;2295;51.050;14.608;2022-11-15T05:24:36;98.88;;;37.08;;
4565;SDS011;2295;51.050;14.608;2022-11-15T05:27:05;79.53;;;34.30;;
4565;SDS011;2295;51.050;14.608;2022-11-15T05:29:36;93.70;;;35.60;;
4565;SDS011;2295;51.050;14.608;2022-11-15T05:32:05;93.22;;;36.97;;
4565;SDS011;2295;51.050;14.608;2022-11-15T05:34:36;88.25;;;35.15;;
4565;SDS011;2295;51.050;14.608;2022-11-15T05:37:05;95.78;;;36.40;;
4565;SDS011;2295;51.050;14.608;2022-11-15T05:39:35;92.35;;;35.05;;
4565;SDS011;2295;51.050;14.608;2022-11-15T05:42:07;85.63;;;34.58;;
4565;SDS011;2295;51.050;14.608;2022-11-15T05:44:39;85.10;;;32.80;;
4565;SDS011;2295;51.050;14.608;2022-11-15T05:47:11;94.57;;;33.47;;
4565;SDS011;2295;51.050;14.608;2022-11-15T05:49:44;95.65;;;34.58;;
4565;SDS011;2295;51.050;14.608;2022-11-15T05:52:15;92.60;;;33.78;;
4565;SDS011;2295;51.050;14.608;2022-11-15T05:54:48;88.32;;;34.15;;
4565;SDS011;2295;51.050;14.608;2022-11-15T05:57:17;94.13;;;36.00;;
4565;SDS011;2295;51.050;14.608;2022-11-15T05:59:46;91.80;;;34.50;;
4565;SDS011;2295;51.050;14.608;2022-11-15T06:02:15;105.28;;;36.58;;
4565;SDS011;2295;51.050;14.608;2022-11-15T06:04:44;90.90;;;34.33;;
4565;SDS011;2295;51.050;14.608;2022-11-15T06:07:13;92.95;;;35.08;;
4565;SDS011;2295;51.050;14.608;2022-11-15T06:09:42;84.00;;;34.92;;
4565;SDS011;2295;51.050;14.608;2022-11-15T06:12:13;92.55;;;36.60;;
4565;SDS011;2295;51.050;14.608;2022-11-15T06:14:46;98.53;;;37.45;;
4565;SDS011;2295;51.050;14.608;2022-11-15T06:17:16;95.25;;;34.78;;
4565;SDS011;2295;51.050;14.608;2022-11-15T06:19:45;92.28;;;35.20;;
4565;SDS011;2295;51.050;14.608;2022-11-15T06:22:14;89.55;;;32.28;;
4565;SDS011;2295;51.050;14.608;2022-11-15T06:24:42;95.45;;;34.05;;
4565;SDS011;2295;51.050;14.608;2022-11-15T06:27:15;91.57;;;33.53;;
4565;SDS011;2295;51.050;14.608;2022-11-15T06:29:45;119.40;;;37.95;;
4565;SDS011;2295;51.050;14.608;2022-11-15T06:32:14;88.00;;;34.20;;
4565;SDS011;2295;51.050;14.608;2022-11-15T06:34:43;99.53;;;33.10;;
4565;SDS011;2295;51.050;14.608;2022-11-15T06:37:12;85.82;;;32.45;;
4565;SDS011;2295;51.050;14.608;2022-11-15T06:39:41;85.22;;;32.53;;
4565;SDS011;2295;51.050;14.608;2022-11-15T06:42:11;87.32;;;31.55;;
4565;SDS011;2295;51.050;14.608;2022-11-15T06:44:41;99.78;;;35.03;;
4565;SDS011;2295;51.050;14.608;2022-11-15T06:47:10;100.85;;;37.33;;
4565;SDS011;2295;51.050;14.608;2022-11-15T06:49:51;92.45;;;35.03;;
4565;SDS011;2295;51.050;14.608;2022-11-15T06:52:20;97.68;;;37.83;;
4565;SDS011;2295;51.050;14.608;2022-11-15T06:54:50;104.90;;;36.65;;
4565;SDS011;2295;51.050;14.608;2022-11-15T06:57:19;98.63;;;37.28;;
4565;SDS011;2295;51.050;14.608;2022-11-15T06:59:50;102.30;;;36.25;;
4565;SDS011;2295;51.050;14.608;2022-11-15T07:02:19;99.30;;;38.15;;
4565;SDS011;2295;51.050;14.608;2022-11-15T07:04:47;98.22;;;39.83;;
4565;SDS011;2295;51.050;14.608;2022-11-15T07:07:17;104.53;;;38.13;;
4565;SDS011;2295;51.050;14.608;2022-11-15T07:09:46;95.72;;;37.95;;
4565;SDS011;2295;51.050;14.608;2022-11-15T07:12:18;106.88;;;38.50;;
4565;SDS011;2295;51.050;14.608;2022-11-15T07:14:47;98.60;;;37.58;;
4565;SDS011;2295;51.050;14.608;2022-11-15T07:17:23;121.78;;;42.58;;
4565;SDS011;2295;51.050;14.608;2022-11-15T07:19:51;115.40;;;41.53;;
4565;SDS011;2295;51.050;14.608;2022-11-15T07:22:20;110.22;;;39.55;;
4565;SDS011;2295;51.050;14.608;2022-11-15T07:25:01;130.13;;;43.08;;
4565;SDS011;2295;51.050;14.608;2022-11-15T07:27:30;117.72;;;42.05;;
4565;SDS011;2295;51.050;14.608;2022-11-15T07:30:00;118.43;;;41.60;;
4565;SDS011;2295;51.050;14.608;2022-11-15T07:32:30;106.63;;;40.30;;
4565;SDS011;2295;51.050;14.608;2022-11-15T07:34:59;132.85;;;44.38;;
4565;SDS011;2295;51.050;14.608;2022-11-15T07:37:28;125.30;;;42.85;;
4565;SDS011;2295;51.050;14.608;2022-11-15T07:39:57;133.15;;;44.30;;
4565;SDS011;2295;51.050;14.608;2022-11-15T07:42:27;121.82;;;41.83;;
4565;SDS011;2295;51.050;14.608;2022-11-15T07:45:15;116.63;;;42.30;;
4565;SDS011;2295;51.050;14.608;2022-11-15T07:47:45;113.55;;;39.85;;
4565;SDS011;2295;51.050;14.608;2022-11-15T07:50:16;100.80;;;41.10;;
4565;SDS011;2295;51.050;14.608;2022-11-15T07:52:46;98.82;;;38.97;;
4565;SDS011;2295;51.050;14.608;2022-11-15T07:55:15;96.68;;;36.70;;
4565;SDS011;2295;51.050;14.608;2022-11-15T07:57:44;96.18;;;39.28;;
4565;SDS011;2295;51.050;14.608;2022-11-15T08:00:15;89.70;;;36.28;;
4565;SDS011;2295;51.050;14.608;2022-11-15T08:02:45;98.70;;;38.85;;
4565;SDS011;2295;51.050;14.608;2022-11-15T08:05:14;92.03;;;36.70;;
4565;SDS011;2295;51.050;14.608;2022-11-15T08:07:44;91.65;;;37.08;;
4565;SDS011;2295;51.050;14.608;2022-11-15T08:10:12;83.78;;;35.50;;
4565;SDS011;2295;51.050;14.608;2022-11-15T08:12:43;82.75;;;35.97;;
4565;SDS011;2295;51.050;14.608;2022-11-15T08:15:11;83.05;;;35.90;;
4565;SDS011;2295;51.050;14.608;2022-11-15T08:17:41;78.15;;;34.95;;
4565;SDS011;2295;51.050;14.608;2022-11-15T08:20:10;78.63;;;32.20;;
4565;SDS011;2295;51.050;14.608;2022-11-15T08:22:38;74.65;;;33.05;;
4565;SDS011;2295;51.050;14.608;2022-11-15T08:25:07;65.55;;;31.83;;
4565;SDS011;2295;51.050;14.608;2022-11-15T08:27:35;71.22;;;30.77;;
4565;SDS011;2295;51.050;14.608;2022-11-15T08:30:04;64.53;;;30.35;;
4565;SDS011;2295;51.050;14.608;2022-11-15T08:32:36;60.17;;;30.17;;
4565;SDS011;2295;51.050;14.608;2022-11-15T08:35:07;73.00;;;31.63;;
4565;SDS011;2295;51.050;14.608;2022-11-15T08:37:35;65.47;;;32.25;;
4565;SDS011;2295;51.050;14.608;2022-11-15T08:40:05;66.40;;;32.20;;
4565;SDS011;2295;51.050;14.608;2022-11-15T08:42:34;77.72;;;34.60;;
4565;SDS011;2295;51.050;14.608;2022-11-15T08:45:03;75.53;;;36.40;;
4565;SDS011;2295;51.050;14.608;2022-11-15T08:47:32;64.68;;;29.73;;
4565;SDS011;2295;51.050;14.608;2022-11-15T08:50:01;58.90;;;31.25;;
4565;SDS011;2295;51.050;14.608;2022-11-15T08:52:31;67.60;;;33.33;;
4565;SDS011;2295;51.050;14.608;2022-11-15T08:54:59;68.93;;;30.33;;
4565;SDS011;2295;51.050;14.608;2022-11-15T08:57:28;66.15;;;32.88;;
4565;SDS011;2295;51.050;14.608;2022-11-15T08:59:57;57.75;;;28.98;;
4565;SDS011;2295;51.050;14.608;2022-11-15T09:02:25;66.28;;;32.63;;
4565;SDS011;2295;51.050;14.608;2022-11-15T09:04:53;81.15;;;47.53;;
4565;SDS011;2295;51.050;14.608;2022-11-15T09:07:22;59.42;;;28.25;;
4565;SDS011;2295;51.050;14.608;2022-11-15T09:09:52;53.05;;;25.52;;
4565;SDS011;2295;51.050;14.608;2022-11-15T09:12:20;49.00;;;24.65;;
4565;SDS011;2295;51.050;14.608;2022-11-15T09:14:48;55.00;;;28.55;;
4565;SDS011;2295;51.050;14.608;2022-11-15T09:17:17;46.95;;;24.52;;
4565;SDS011;2295;51.050;14.608;2022-11-15T09:19:50;57.08;;;26.75;;
4565;SDS011;2295;51.050;14.608;2022-11-15T09:22:18;43.72;;;22.60;;
4565;SDS011;2295;51.050;14.608;2022-11-15T09:24:47;46.35;;;22.20;;
4565;SDS011;2295;51.050;14.608;2022-11-15T09:27:17;45.67;;;23.80;;
4565;SDS011;2295;51.050;14.608;2022-11-15T09:29:45;53.00;;;25.67;;
4565;SDS011;2295;51.050;14.608;2022-11-15T09:32:14;47.17;;;23.25;;
4565;SDS011;2295;51.050;14.608;2022-11-15T09:34:42;41.65;;;21.80;;
4565;SDS011;2295;51.050;14.608;2022-11-15T09:37:10;44.50;;;23.13;;
4565;SDS011;2295;51.050;14.608;2022-11-15T09:39:39;43.60;;;23.00;;
4565;SDS011;2295;51.050;14.608;2022-11-15T09:42:18;39.67;;;21.75;;
4565;SDS011;2295;51.050;14.608;2022-11-15T09:44:59;37.58;;;21.35;;
4565;SDS011;2295;51.050;14.608;2022-11-15T09:47:45;45.92;;;22.63;;
4565;SDS011;2295;51.050;14.608;2022-11-15T09:50:36;41.30;;;21.00;;
4565;SDS011;2295;51.050;14.608;2022-11-15T09:53:11;43.88;;;23.75;;
4565;SDS011;2295;51.050;14.608;2022-11-15T09:55:44;40.10;;;20.88;;
4565;SDS011;2295;51.050;14.608;2022-11-15T09:58:21;37.58;;;20.60;;
4565;SDS011;2295;51.050;14.608;2022-11-15T10:01:02;38.17;;;19.88;;
4565;SDS011;2295;51.050;14.608;2022-11-15T10:03:34;38.47;;;19.85;;
4565;SDS011;2295;51.050;14.608;2022-11-15T10:06:08;36.20;;;20.70;;
4565;SDS011;2295;51.050;14.608;2022-11-15T10:08:49;38.60;;;19.95;;
4565;SDS011;2295;51.050;14.608;2022-11-15T10:11:22;36.70;;;18.58;;
4565;SDS011;2295;51.050;14.608;2022-11-15T10:14:10;32.25;;;18.00;;
4565;SDS011;2295;51.050;14.608;2022-11-15T10:16:57;32.20;;;18.08;;
4565;SDS011;2295;51.050;14.608;2022-11-15T10:19:47;34.88;;;19.48;;
4565;SDS011;2295;51.050;14.608;2022-11-15T10:22:34;33.75;;;19.13;;
4565;SDS011;2295;51.050;14.608;2022-11-15T10:25:10;35.13;;;19.27;;
4565;SDS011;2295;51.050;14.608;2022-11-15T10:27:44;33.53;;;18.42;;
4565;SDS011;2295;51.050;14.608;2022-11-15T10:30:23;36.65;;;18.83;;
4565;SDS011;2295;51.050;14.608;2022-11-15T10:32:57;33.00;;;19.42;;
4565;SDS011;2295;51.050;14.608;2022-11-15T10:35:28;42.50;;;21.30;;
4565;SDS011;2295;51.050;14.608;2022-11-15T10:38:04;38.65;;;20.20;;
4565;SDS011;2295;51.050;14.608;2022-11-15T10:40:34;39.15;;;18.27;;
4565;SDS011;2295;51.050;14.608;2022-11-15T10:43:04;36.45;;;19.60;;
4565;SDS011;2295;51.050;14.608;2022-11-15T10:45:41;32.20;;;18.40;;
4565;SDS011;2295;51.050;14.608;2022-11-15T10:48:24;31.95;;;18.60;;
4565;SDS011;2295;51.050;14.608;2022-11-15T10:50:53;28.42;;;16.88;;
4565;SDS011;2295;51.050;14.608;2022-11-15T10:53:28;29.75;;;17.02;;
4565;SDS011;2295;51.050;14.608;2022-11-15T10:56:00;28.92;;;16.85;;
4565;SDS011;2295;51.050;14.608;2022-11-15T10:58:35;31.35;;;17.42;;
4565;SDS011;2295;51.050;14.608;2022-11-15T11:01:10;29.75;;;16.45;;
4565;SDS011;2295;51.050;14.608;2022-11-15T11:03:41;30.45;;;15.95;;
4565;SDS011;2295;51.050;14.608;2022-11-15T11:06:11;29.85;;;16.92;;
4565;SDS011;2295;51.050;14.608;2022-11-15T11:08:52;33.50;;;16.13;;
4565;SDS011;2295;51.050;14.608;2022-11-15T11:11:25;24.58;;;15.18;;
4565;SDS011;2295;51.050;14.608;2022-11-15T11:14:12;27.83;;;16.15;;
4565;SDS011;2295;51.050;14.608;2022-11-15T11:16:47;27.27;;;16.45;;
4565;SDS011;2295;51.050;14.608;2022-11-15T11:19:27;23.95;;;15.23;;
4565;SDS011;2295;51.050;14.608;2022-11-15T11:22:05;29.35;;;15.85;;
4565;SDS011;2295;51.050;14.608;2022-11-15T11:24:41;31.00;;;17.40;;
4565;SDS011;2295;51.050;14.608;2022-11-15T11:27:21;31.42;;;18.63;;
4565;SDS011;2295;51.050;14.608;2022-11-15T11:30:03;35.05;;;18.20;;
4565;SDS011;2295;51.050;14.608;2022-11-15T11:32:53;41.22;;;23.52;;
4565;SDS011;2295;51.050;14.608;2022-11-15T11:35:34;33.67;;;17.60;;
4565;SDS011;2295;51.050;14.608;2022-11-15T11:38:17;28.92;;;17.45;;
4565;SDS011;2295;51.050;14.608;2022-11-15T11:40:55;29.77;;;17.95;;
4565;SDS011;2295;51.050;14.608;2022-11-15T11:43:30;34.72;;;19.02;;
4565;SDS011;2295;51.050;14.608;2022-11-15T11:46:16;34.35;;;18.63;;
4565;SDS011;2295;51.050;14.608;2022-11-15T11:48:56;28.65;;;17.33;;
4565;SDS011;2295;51.050;14.608;2022-11-15T11:51:32;34.90;;;17.52;;
4565;SDS011;2295;51.050;14.608;2022-11-15T11:54:06;31.77;;;18.15;;
4565;SDS011;2295;51.050;14.608;2022-11-15T11:56:41;32.25;;;17.60;;
4565;SDS011;2295;51.050;14.608;2022-11-15T11:59:13;32.35;;;18.45;;
4565;SDS011;2295;51.050;14.608;2022-11-15T12:01:48;33.55;;;17.65;;
4565;SDS011;2295;51.050;14.608;2022-11-15T12:04:20;32.53;;;17.25;;
4565;SDS011;2295;51.050;14.608;2022-11-15T12:06:58;31.67;;;18.17;;
4565;SDS011;2295;51.050;14.608;2022-11-15T12:09:30;34.00;;;19.90;;
4565;SDS011;2295;51.050;14.608;2022-11-15T12:12:05;35.88;;;17.88;;
4565;SDS011;2295;51.050;14.608;2022-11-15T12:14:40;32.67;;;17.98;;
4565;SDS011;2295;51.050;14.608;2022-11-15T12:17:13;36.53;;;19.80;;
4565;SDS011;2295;51.050;14.608;2022-11-15T12:19:46;40.05;;;18.15;;
4565;SDS011;2295;51.050;14.608;2022-11-15T12:22:16;35.13;;;18.80;;
4565;SDS011;2295;51.050;14.608;2022-11-15T12:24:49;32.80;;;17.73;;
4565;SDS011;2295;51.050;14.608;2022-11-15T12:27:22;39.35;;;22.45;;
4565;SDS011;2295;51.050;14.608;2022-11-15T12:30:00;32.90;;;17.70;;
4565;SDS011;2295;51.050;14.608;2022-11-15T12:32:31;45.33;;;23.70;;
4565;SDS011;2295;51.050;14.608;2022-11-15T12:35:03;34.45;;;19.40;;
4565;SDS011;2295;51.050;14.608;2022-11-15T12:37:48;37.45;;;19.25;;
4565;SDS011;2295;51.050;14.608;2022-11-15T12:40:19;129.15;;;46.05;;
4565;SDS011;2295;51.050;14.608;2022-11-15T12:43:03;102.93;;;42.63;;
4565;SDS011;2295;51.050;14.608;2022-11-15T12:45:53;46.75;;;22.52;;
4565;SDS011;2295;51.050;14.608;2022-11-15T12:51:15;105.97;;;39.20;;
4565;SDS011;2295;51.050;14.608;2022-11-15T12:53:44;76.80;;;33.17;;
4565;SDS011;2295;51.050;14.608;2022-11-15T12:56:20;37.60;;;18.73;;
4565;SDS011;2295;51.050;14.608;2022-11-15T12:58:54;33.97;;;17.45;;
4565;SDS011;2295;51.050;14.608;2022-11-15T13:04:24;35.13;;;17.35;;
4565;SDS011;2295;51.050;14.608;2022-11-15T13:06:56;28.10;;;15.45;;
4565;SDS011;2295;51.050;14.608;2022-11-15T13:18:33;82.10;;;37.15;;
4565;SDS011;2295;51.050;14.608;2022-11-15T13:21:04;38.70;;;20.70;;
4565;SDS011;2295;51.050;14.608;2022-11-15T13:24:09;37.47;;;21.13;;
4565;SDS011;2295;51.050;14.608;2022-11-15T13:26:40;126.18;;;53.50;;
4565;SDS011;2295;51.050;14.608;2022-11-15T13:29:14;81.38;;;36.72;;
4565;SDS011;2295;51.050;14.608;2022-11-15T13:31:47;117.30;;;50.38;;
4565;SDS011;2295;51.050;14.608;2022-11-15T13:34:17;45.70;;;23.85;;
4565;SDS011;2295;51.050;14.608;2022-11-15T13:37:29;40.58;;;20.25;;
4565;SDS011;2295;51.050;14.608;2022-11-15T13:40:21;27.55;;;16.02;;
4565;SDS011;2295;51.050;14.608;2022-11-15T13:42:53;28.33;;;16.60;;
4565;SDS011;2295;51.050;14.608;2022-11-15T13:45:22;29.73;;;16.48;;
4565;SDS011;2295;51.050;14.608;2022-11-15T13:47:51;134.90;;;55.88;;
4565;SDS011;2295;51.050;14.608;2022-11-15T13:50:22;45.80;;;23.88;;
4565;SDS011;2295;51.050;14.608;2022-11-15T13:52:56;77.68;;;36.00;;
4565;SDS011;2295;51.050;14.608;2022-11-15T13:55:27;79.28;;;32.97;;
4565;SDS011;2295;51.050;14.608;2022-11-15T13:57:59;48.10;;;22.90;;
4565;SDS011;2295;51.050;14.608;2022-11-15T14:00:34;38.53;;;20.90;;
4565;SDS011;2295;51.050;14.608;2022-11-15T14:03:13;36.65;;;20.65;;
4565;SDS011;2295;51.050;14.608;2022-11-15T14:05:46;37.45;;;20.30;;
4565;SDS011;2295;51.050;14.608;2022-11-15T14:08:33;39.70;;;19.55;;
4565;SDS011;2295;51.050;14.608;2022-11-15T14:11:08;39.42;;;20.55;;
4565;SDS011;2295;51.050;14.608;2022-11-15T14:13:58;42.42;;;21.38;;
4565;SDS011;2295;51.050;14.608;2022-11-15T14:16:39;44.20;;;22.83;;
4565;SDS011;2295;51.050;14.608;2022-11-15T14:19:12;44.75;;;21.65;;
4565;SDS011;2295;51.050;14.608;2022-11-15T14:22:07;40.17;;;21.33;;
4565;SDS011;2295;51.050;14.608;2022-11-15T14:24:41;47.08;;;23.33;;
4565;SDS011;2295;51.050;14.608;2022-11-15T14:27:26;40.58;;;21.33;;
4565;SDS011;2295;51.050;14.608;2022-11-15T14:29:57;46.05;;;21.65;;
4565;SDS011;2295;51.050;14.608;2022-11-15T14:32:26;45.35;;;22.73;;
4565;SDS011;2295;51.050;14.608;2022-11-15T14:34:56;80.05;;;38.70;;
4565;SDS011;2295;51.050;14.608;2022-11-15T14:37:27;56.75;;;28.77;;
4565;SDS011;2295;51.050;14.608;2022-11-15T14:39:58;78.00;;;35.85;;
4565;SDS011;2295;51.050;14.608;2022-11-15T14:42:30;51.85;;;25.85;;
4565;SDS011;2295;51.050;14.608;2022-11-15T14:44:58;55.65;;;25.15;;
4565;SDS011;2295;51.050;14.608;2022-11-15T14:47:27;56.08;;;24.73;;
4565;SDS011;2295;51.050;14.608;2022-11-15T14:49:55;83.95;;;32.72;;
4565;SDS011;2295;51.050;14.608;2022-11-15T14:52:25;52.28;;;24.10;;
4565;SDS011;2295;51.050;14.608;2022-11-15T14:54:58;62.10;;;27.25;;
4565;SDS011;2295;51.050;14.608;2022-11-15T14:57:29;59.65;;;28.02;;
4565;SDS011;2295;51.050;14.608;2022-11-15T14:59:58;57.67;;;25.52;;
4565;SDS011;2295;51.050;14.608;2022-11-15T15:02:27;65.65;;;27.58;;
4565;SDS011;2295;51.050;14.608;2022-11-15T15:04:56;68.13;;;29.63;;
4565;SDS011;2295;51.050;14.608;2022-11-15T15:07:27;76.78;;;35.80;;
4565;SDS011;2295;51.050;14.608;2022-11-15T15:09:57;70.05;;;34.58;;
4565;SDS011;2295;51.050;14.608;2022-11-15T15:12:47;61.05;;;28.52;;
4565;SDS011;2295;51.050;14.608;2022-11-15T15:15:20;58.22;;;27.75;;
4565;SDS011;2295;51.050;14.608;2022-11-15T15:17:52;105.90;;;48.05;;
4565;SDS011;2295;51.050;14.608;2022-11-15T15:20:21;87.18;;;40.50;;
4565;SDS011;2295;51.050;14.608;2022-11-15T15:22:49;127.93;;;52.47;;
4565;SDS011;2295;51.050;14.608;2022-11-15T15:25:20;252.00;;;90.50;;